CST,Max TemperatureF,Mean TemperatureF,Min TemperatureF,Max Dew PointF,MeanDew PointF,Min DewpointF,Max Humidity, Mean Humidity, Min Humidity, Max Sea Level PressureIn, Mean Sea Level PressureIn, Min Sea Level PressureIn, Max VisibilityMiles, Mean VisibilityMiles, Min VisibilityMiles, Max Wind SpeedMPH, Mean Wind SpeedMPH, Max Gust SpeedMPH,PrecipitationIn, CloudCover, Events, WindDirDegrees
2011-12-1,52,38,23,33,26,19,92,68,44,30.40,30.32,30.25,10,6,0,7,0,8,0.00,0,Fog,15
2011-12-2,58,42,25,35,31,22,92,66,39,30.47,30.43,30.34,10,9,2,7,1,8,0.00,0,,196
2011-12-3,64,49,34,38,31,27,92,60,27,30.44,30.35,30.24,10,10,10,22,7,28,0.00,0,,173
2011-12-4,66,60,54,53,44,31,93,66,38,30.23,30.17,30.09,10,10,5,24,10,35,0.09,6,Rain,184
2011-12-5,57,51,45,55,51,42,100,93,86,30.10,30.05,29.96,10,3,1,16,4,22,2.50,8,Rain,9
2011-12-6,45,43,41,42,39,37,92,87,82,30.14,30.10,30.06,10,8,2,9,4,13,0.03,8,Rain,352
2011-12-7,44,37,30,37,32,26,86,70,54,30.29,30.09,30.00,10,10,4,18,6,25,0.00,6,,338
2011-12-8,46,35,24,32,26,23,92,66,40,30.38,30.31,30.27,10,8,2,12,4,15,0.00,0,,202
2011-12-9,50,37,23,31,25,19,92,66,39,30.44,30.31,30.25,10,7,0,12,3,15,0.00,0,Fog,305
2011-12-10,41,32,23,27,19,15,81,59,37,30.62,30.55,30.45,10,10,10,9,3,14,0.00,0,,353
2011-12-11,47,33,19,24,20,15,85,61,37,30.60,30.52,30.44,10,10,10,8,1,12,0.00,0,,60
2011-12-12,52,38,23,39,31,19,88,68,48,30.48,30.44,30.41,10,9,4,7,1,9,0.00,5,,169
2011-12-13,56,51,45,48,44,39,89,78,66,30.49,30.42,30.34,10,9,6,9,2,10,0.00,8,,183
2011-12-14,67,54,41,52,46,39,100,78,56,30.33,30.23,30.05,10,5,0,18,7,25,0.00,3,Fog,193
2011-12-15,66,55,44,61,51,35,90,73,56,30.27,30.07,30.00,10,10,6,23,11,30,0.13,7,Rain,240
2011-12-16,44,38,32,34,32,28,92,77,62,30.38,30.33,30.26,10,7,2,10,4,14,0.47,6,Rain,358
2011-12-17,43,35,27,30,27,24,92,75,57,30.43,30.37,30.31,10,8,3,12,3,14,0.00,1,,239
2011-12-18,54,39,24,35,29,21,92,69,46,30.39,30.32,30.22,10,7,0,12,5,17,0.00,0,Fog,198
2011-12-19,55,47,38,37,34,32,73,58,43,30.24,30.18,30.14,10,10,10,14,6,20,0.00,5,,193
2011-12-20,63,50,36,57,49,32,87,79,70,30.15,29.98,29.82,10,10,6,22,6,29,0.05,7,Rain,172
2011-12-21,64,52,40,59,48,38,93,80,67,30.04,29.87,29.70,10,9,2,23,10,33,0.28,5,Rain,219
2011-12-22,47,43,38,45,42,36,93,90,86,30.18,30.04,29.96,10,6,1,9,3,14,0.46,6,Rain,352
2011-12-23,45,42,39,43,38,30,92,84,76,30.42,30.29,30.16,10,7,4,13,6,16,0.00,8,,304
2011-12-24,47,40,33,32,30,27,82,68,53,30.50,30.44,30.40,10,10,10,9,3,15,0.00,2,,222
2011-12-25,56,44,31,35,28,23,89,61,32,30.39,30.35,30.27,10,10,8,16,5,23,0.00,0,,244
2011-12-26,46,36,25,38,30,22,92,73,53,30.40,30.22,29.88,10,10,5,14,4,18,0.25,2,Rain,96
2011-12-27,47,43,38,44,37,28,93,79,64,30.04,29.79,29.61,10,7,2,28,10,39,0.53,8,Rain,257
2011-12-28,46,39,31,32,29,26,85,69,53,30.16,30.10,30.03,10,10,10,12,4,15,0.00,0,,230
2011-12-29,56,43,29,37,31,26,92,67,41,30.03,29.95,29.87,10,10,9,21,8,25,0.00,0,,201
2011-12-30,60,54,47,47,41,37,77,66,54,29.91,29.83,29.72,10,10,10,28,13,37,0.00,4,,209
2011-12-31,57,46,35,38,35,33,89,68,47,30.14,30.03,29.92,10,10,10,18,6,24,0.00,1,,192